Time;durP1;ratioP1;P1;durP2;ratioP2;P2;SDS_P1;SDS_P2;PMS_P1;PMS_P2;Temp;Humidity;BMP_temperature;BMP_pressure;BME280_temperature;BME280_humidity;BME280_pressure;Samples;Min_cycle;Max_cycle;Signal;HPM_P1;HPM_P2
2022/10/11 00:00:49;;;;;;;29.40;12.50;;;;;;;11.31;79.24;100577.73;103600;1297;22483;-77
2022/10/11 00:03:35;;;;;;;41.70;21.70;;;;;;;11.27;79.20;100584.40;103605;1298;22473;-77
2022/10/11 00:06:07;;;;;;;49.00;27.30;;;;;;;11.21;79.31;100587.29;103626;1275;24212;-77
2022/10/11 00:08:39;;;;;;;58.30;32.70;;;;;;;11.14;79.35;100588.39;103638;1291;22593;-77
2022/10/11 00:11:11;;;;;;;56.10;29.80;;;;;;;11.06;79.33;100583.44;103620;1300;24451;-77
2022/10/11 00:13:43;;;;;;;48.10;27.90;;;;;;;10.99;79.36;100581.60;103671;1306;22516;-77
2022/10/11 00:16:15;;;;;;;50.40;24.40;;;;;;;10.94;79.35;100581.80;103632;1285;22517;-77
2022/10/11 00:18:46;;;;;;;43.10;21.60;;;;;;;10.88;79.42;100585.05;103621;1305;25220;-76
2022/10/11 00:21:19;;;;;;;43.80;21.30;;;;;;;10.80;79.43;100586.70;103659;1276;22685;-77
2022/10/11 00:23:53;;;;;;;39.60;20.10;;;;;;;10.71;79.57;100591.92;103676;1288;22478;-77
2022/10/11 00:26:26;;;;;;;36.00;17.90;;;;;;;10.68;79.45;100594.08;103674;1291;22510;-77
2022/10/11 00:28:57;;;;;;;37.00;16.80;;;;;;;10.66;79.47;100593.77;103732;1291;24326;-77
2022/10/11 00:31:28;;;;;;;33.00;15.50;;;;;;;10.64;79.32;100596.52;103664;1303;27543;-77
2022/10/11 00:33:59;;;;;;;29.30;14.30;;;;;;;10.59;79.17;100599.66;103694;1306;24425;-77
2022/10/11 00:36:31;;;;;;;28.20;12.90;;;;;;;10.52;79.04;100604.55;103573;1304;24332;-77
2022/10/11 00:39:02;;;;;;;27.10;14.00;;;;;;;10.45;79.35;100602.80;103604;1287;25416;-77
2022/10/11 00:41:33;;;;;;;30.40;14.10;;;;;;;10.39;79.57;100606.77;103534;1288;22518;-77
2022/10/11 00:44:14;;;;;;;26.90;12.60;;;;;;;10.34;79.36;100608.41;103558;1306;25354;-77
2022/10/11 00:46:51;;;;;;;27.00;12.50;;;;;;;10.31;79.43;100607.73;103607;1278;24216;-77
2022/10/11 00:49:29;;;;;;;27.30;12.10;;;;;;;10.28;79.44;100609.61;103619;1291;24320;-77
2022/10/11 00:52:03;;;;;;;38.60;17.40;;;;;;;10.20;79.44;100608.97;103637;1282;22473;-77
2022/10/11 00:54:39;;;;;;;39.90;19.40;;;;;;;10.15;79.39;100606.11;103690;1300;22586;-76
2022/10/11 00:57:15;;;;;;;39.70;22.80;;;;;;;10.12;79.63;100613.31;103647;1282;24249;-76
2022/10/11 00:59:52;;;;;;;44.30;24.30;;;;;;;10.09;79.62;100616.55;103608;1297;25237;-77
2022/10/11 01:02:24;;;;;;;45.30;29.00;;;;;;;10.08;79.60;100621.64;103652;1303;22591;-76
2022/10/11 01:04:55;;;;;;;46.00;30.50;;;;;;;10.06;79.65;100625.85;103652;1306;26342;-76
2022/10/11 01:07:30;;;;;;;51.00;32.20;;;;;;;10.00;79.47;100625.39;103696;1303;24285;-76
2022/10/11 01:10:01;;;;;;;57.30;34.80;;;;;;;9.97;79.70;100625.39;103739;1297;25293;-76
2022/10/11 01:12:33;;;;;;;57.90;35.60;;;;;;;9.91;79.91;100627.48;103626;1298;24234;-76
2022/10/11 01:15:15;;;;;;;51.00;33.80;;;;;;;9.86;79.94;100626.15;103659;1288;22620;-76
2022/10/11 01:17:55;;;;;;;60.50;33.00;;;;;;;9.80;79.88;100625.27;103615;1297;24251;-76
2022/10/11 01:20:53;;;;;;;56.20;31.60;;;;;;;9.76;79.93;100631.25;103653;1297;24318;-76
2022/10/11 01:24:00;;;;;;;48.60;28.00;;;;;;;9.72;80.03;100628.15;103641;1297;22454;-76
2022/10/11 01:26:57;;;;;;;45.30;26.30;;;;;;;9.69;79.99;100627.49;103586;1304;22559;-76
2022/10/11 01:29:39;;;;;;;41.20;23.00;;;;;;;9.67;80.14;100625.11;103609;1305;22556;-77
2022/10/11 01:32:18;;;;;;;34.90;17.50;;;;;;;9.64;80.23;100625.64;103631;1298;22614;-77
2022/10/11 01:34:56;;;;;;;28.90;13.50;;;;;;;9.62;80.49;100629.13;103786;1299;22475;-77
2022/10/11 01:37:32;;;;;;;28.10;14.50;;;;;;;9.62;80.64;100630.91;103701;1297;22668;-77
2022/10/11 01:40:09;;;;;;;28.60;12.60;;;;;;;9.62;80.73;100633.59;103653;1305;23924;-77
2022/10/11 01:42:42;;;;;;;24.00;11.40;;;;;;;9.60;80.86;100635.98;103686;1305;22881;-77
2022/10/11 01:45:17;;;;;;;20.50;8.30;;;;;;;9.59;81.20;100632.08;103738;1298;22473;-77
2022/10/11 01:47:48;;;;;;;20.60;10.00;;;;;;;9.58;81.20;100632.45;103649;1294;24338;-77
2022/10/11 01:50:45;;;;;;;24.60;9.60;;;;;;;9.55;81.54;100635.71;103624;1282;22486;-76
2022/10/11 01:53:47;;;;;;;24.20;10.30;;;;;;;9.51;81.41;100637.33;103746;1305;25434;-77
2022/10/11 01:56:28;;;;;;;18.90;8.70;;;;;;;9.47;81.43;100637.84;103659;1291;24298;-77
2022/10/11 01:59:14;;;;;;;16.20;7.60;;;;;;;9.44;81.31;100635.87;103594;1281;22500;-77
2022/10/11 02:01:55;;;;;;;18.70;8.10;;;;;;;9.43;81.39;100640.14;103594;1306;25103;-77
2022/10/11 02:04:31;;;;;;;17.30;5.70;;;;;;;9.41;81.45;100640.16;103968;1288;24291;-77
2022/10/11 02:07:11;;;;;;;17.50;6.70;;;;;;;9.39;81.57;100642.23;103662;1304;24341;-77
2022/10/11 02:09:45;;;;;;;;;;;;;;;9.37;81.49;100645.09;103711;1297;22490;-77
2022/10/11 02:12:23;;;;;;;16.60;6.90;;;;;;;9.33;81.47;100647.47;103767;1298;25253;-77
2022/10/11 02:14:57;;;;;;;18.00;5.90;;;;;;;9.30;81.61;100652.29;103775;1282;25329;-77
2022/10/11 02:17:36;;;;;;;17.90;6.00;;;;;;;9.27;81.56;100657.92;103634;1299;25333;-77
2022/10/11 02:20:13;;;;;;;16.00;7.10;;;;;;;9.25;81.59;100659.84;103606;1304;22746;-77
2022/10/11 02:22:46;;;;;;;17.30;5.80;;;;;;;9.24;81.54;100662.93;103635;1298;24456;-77
2022/10/11 02:25:22;;;;;;;15.80;6.10;;;;;;;9.20;81.79;100664.65;103730;1297;24436;-77
2022/10/11 02:27:59;;;;;;;25.00;6.90;;;;;;;9.16;81.79;100658.44;103804;1291;25446;-77
2022/10/11 02:30:32;;;;;;;15.60;6.50;;;;;;;9.13;82.09;100663.83;103542;1306;23347;-77
2022/10/11 02:33:07;;;;;;;15.70;5.90;;;;;;;9.10;82.53;100667.06;103573;1304;24245;-77
2022/10/11 02:35:42;;;;;;;16.60;6.60;;;;;;;9.09;83.35;100671.73;103725;1298;22485;-76
2022/10/11 02:38:19;;;;;;;19.10;7.10;;;;;;;9.10;83.95;100674.30;103588;1299;25351;-77
2022/10/11 02:40:56;;;;;;;17.90;6.70;;;;;;;9.14;84.41;100674.16;103729;1306;26499;-76
2022/10/11 02:43:35;;;;;;;15.80;6.30;;;;;;;9.19;85.00;100683.72;103593;1298;22532;-76
2022/10/11 02:46:08;;;;;;;19.40;7.50;;;;;;;9.25;85.54;100691.04;103645;1282;22634;-77
2022/10/11 02:48:40;;;;;;;21.40;6.60;;;;;;;9.32;86.08;100691.81;103622;1275;22861;-77
2022/10/11 02:51:15;;;;;;;22.00;7.00;;;;;;;9.39;86.43;100695.64;103603;1290;23850;-76
2022/10/11 02:53:47;;;;;;;19.50;6.40;;;;;;;9.49;86.85;100701.70;103853;1289;24391;-77
2022/10/11 02:56:18;;;;;;;20.40;7.40;;;;;;;9.57;86.94;100709.95;103608;1306;22530;-76
2022/10/11 02:58:49;;;;;;;19.40;6.10;;;;;;;9.65;87.16;100717.26;103611;1306;24314;-77
2022/10/11 03:01:20;;;;;;;17.60;5.80;;;;;;;9.74;87.25;100717.27;103600;1297;25363;-76
2022/10/11 03:03:51;;;;;;;19.30;7.30;;;;;;;9.83;87.50;100717.23;103566;1297;24094;-77
2022/10/11 03:06:22;;;;;;;19.30;6.10;;;;;;;9.92;87.69;100721.19;103567;1282;24424;-77
2022/10/11 03:08:53;;;;;;;19.90;6.30;;;;;;;10.00;87.98;100718.73;103611;1289;22468;-76
2022/10/11 03:11:24;;;;;;;14.50;5.40;;;;;;;10.08;87.89;100719.92;103608;1298;22462;-76
2022/10/11 03:13:55;;;;;;;18.80;5.20;;;;;;;10.14;87.84;100725.07;103601;1306;23213;-76
2022/10/11 03:16:28;;;;;;;20.20;5.30;;;;;;;10.20;88.02;100730.90;103712;1288;22486;-77
2022/10/11 03:18:59;;;;;;;19.20;5.20;;;;;;;10.26;88.23;100730.71;103633;1298;22471;-76
2022/10/11 03:21:30;;;;;;;21.90;5.60;;;;;;;10.30;87.96;100727.64;103784;1304;22996;-76
2022/10/11 03:24:02;;;;;;;18.70;6.50;;;;;;;10.34;88.06;100730.52;103582;1275;22476;-76
2022/10/11 03:26:33;;;;;;;19.70;5.80;;;;;;;10.35;88.04;100736.61;103612;1287;22633;-76
2022/10/11 03:29:04;;;;;;;18.60;5.30;;;;;;;10.36;88.16;100738.52;103595;1305;26634;-76
2022/10/11 03:31:35;;;;;;;13.60;5.40;;;;;;;10.38;88.08;100742.19;103655;1292;24468;-76
2022/10/11 03:34:06;;;;;;;19.70;5.00;;;;;;;10.39;88.17;100742.55;103596;1298;23189;-76
2022/10/11 03:36:37;;;;;;;17.70;4.70;;;;;;;10.39;88.21;100750.38;103649;1280;22493;-75
2022/10/11 03:39:09;;;;;;;17.20;5.00;;;;;;;10.39;88.08;100750.30;103619;1288;22489;-76
2022/10/11 03:41:40;;;;;;;14.10;5.50;;;;;;;10.38;88.00;100753.95;103537;1306;23578;-76
2022/10/11 03:44:11;;;;;;;18.50;5.20;;;;;;;10.35;88.12;100754.77;103493;1282;22493;-76
2022/10/11 03:46:42;;;;;;;13.20;4.40;;;;;;;10.33;88.06;100759.99;103590;1305;24540;-76
2022/10/11 03:49:13;;;;;;;14.00;4.50;;;;;;;10.30;88.20;100769.50;103633;1279;25527;-75
2022/10/11 03:51:45;;;;;;;13.10;4.20;;;;;;;10.28;88.39;100781.36;103674;1288;22933;-76
2022/10/11 03:54:17;;;;;;;16.70;4.60;;;;;;;10.27;88.40;100783.67;103729;1292;22497;-75
2022/10/11 03:56:48;;;;;;;13.80;3.90;;;;;;;10.27;88.76;100790.06;103564;1303;25436;-75
2022/10/11 03:59:19;;;;;;;12.60;3.80;;;;;;;10.27;88.90;100793.53;103584;1282;22477;-75
2022/10/11 04:01:50;;;;;;;13.90;3.90;;;;;;;10.29;88.91;100794.36;103610;1306;25459;-75
2022/10/11 04:04:21;;;;;;;19.50;5.20;;;;;;;10.28;89.17;100795.11;103576;1282;22516;-75
2022/10/11 04:06:52;;;;;;;19.80;5.50;;;;;;;10.28;89.08;100803.02;103602;1304;23103;-76
2022/10/11 04:09:24;;;;;;;14.40;3.80;;;;;;;10.28;89.28;100806.92;103605;1288;22595;-75
2022/10/11 04:11:55;;;;;;;15.60;5.00;;;;;;;10.29;89.28;100804.11;103671;1290;22577;-76
2022/10/11 04:14:26;;;;;;;13.30;5.00;;;;;;;10.29;89.34;100802.96;103688;1281;25656;-77
2022/10/11 04:16:57;;;;;;;20.30;4.30;;;;;;;10.30;89.62;100809.23;103683;1288;27560;-76
2022/10/11 04:19:28;;;;;;;12.70;4.30;;;;;;;10.31;89.76;100815.70;103545;1304;23908;-75
2022/10/11 04:21:59;;;;;;;16.10;5.30;;;;;;;10.33;89.87;100819.77;103587;1305;22588;-75
2022/10/11 04:24:32;;;;;;;16.60;4.30;;;;;;;10.34;89.94;100819.80;103562;1298;22608;-75
2022/10/11 04:27:03;;;;;;;15.00;5.10;;;;;;;10.37;90.20;100825.36;103630;1282;25254;-73
2022/10/11 04:29:34;;;;;;;18.70;5.10;;;;;;;10.38;89.95;100820.28;103674;1304;22480;-74
2022/10/11 04:32:05;;;;;;;16.40;4.20;;;;;;;10.40;90.23;100825.15;103687;1275;22745;-73
2022/10/11 04:34:36;;;;;;;19.00;5.20;;;;;;;10.41;90.22;100823.09;103563;1306;23202;-76
2022/10/11 04:37:08;;;;;;;15.90;4.70;;;;;;;10.41;90.09;100825.55;103604;1298;22583;-76
2022/10/11 04:39:39;;;;;;;13.50;4.70;;;;;;;10.41;90.19;100831.07;103682;1282;22489;-75
2022/10/11 04:42:10;;;;;;;16.10;4.20;;;;;;;10.41;90.12;100836.49;103730;1289;22602;-76
2022/10/11 04:44:44;;;;;;;15.30;3.90;;;;;;;10.40;90.01;100836.46;103928;1304;24380;-74
2022/10/11 04:47:15;;;;;;;14.40;4.40;;;;;;;10.38;90.11;100841.70;103837;1284;23972;-76
2022/10/11 04:49:46;;;;;;;14.60;4.60;;;;;;;10.36;90.08;100847.93;103890;1274;24423;-76
2022/10/11 04:52:17;;;;;;;16.90;4.10;;;;;;;10.35;90.12;100851.29;103647;1298;24649;-76
2022/10/11 04:54:48;;;;;;;20.20;4.50;;;;;;;10.32;90.21;100858.56;103644;1304;24307;-76
2022/10/11 04:57:19;;;;;;;14.10;4.30;;;;;;;10.32;90.33;100859.07;103577;1306;25460;-76
2022/10/11 04:59:52;;;;;;;14.40;4.50;;;;;;;10.32;90.49;100867.09;103608;1304;25250;-75
2022/10/11 05:02:24;;;;;;;15.30;4.70;;;;;;;10.35;90.92;100867.23;103638;1297;22598;-75
2022/10/11 05:04:55;;;;;;;17.70;5.20;;;;;;;10.38;90.91;100867.31;103593;1290;23217;-76
2022/10/11 05:07:26;;;;;;;16.60;4.10;;;;;;;10.41;91.06;100872.39;103618;1295;22569;-76
2022/10/11 05:09:58;;;;;;;14.60;4.90;;;;;;;10.43;90.98;100876.29;103646;1291;22594;-76
2022/10/11 05:12:29;;;;;;;15.90;5.10;;;;;;;10.46;90.94;100880.95;103634;1306;25344;-76
2022/10/11 05:15:01;;;;;;;16.40;4.70;;;;;;;10.49;91.02;100880.67;103619;1297;22515;-76
2022/10/11 05:17:32;;;;;;;18.40;5.80;;;;;;;10.50;91.08;100884.27;103634;1281;22724;-76
2022/10/11 05:20:04;;;;;;;12.70;4.00;;;;;;;10.50;91.03;100884.98;103550;1306;22673;-76
2022/10/11 05:22:35;;;;;;;16.80;4.50;;;;;;;10.50;91.07;100891.38;103661;1304;22502;-76
2022/10/11 05:25:07;;;;;;;13.70;4.00;;;;;;;10.49;90.90;100896.73;103627;1297;22727;-76
2022/10/11 05:27:38;;;;;;;22.60;4.70;;;;;;;10.48;91.09;100898.79;103732;1305;22483;-76
2022/10/11 05:30:11;;;;;;;11.30;4.10;;;;;;;10.46;90.95;100908.83;103648;1284;25202;-76
2022/10/11 05:32:43;;;;;;;13.40;3.80;;;;;;;10.43;91.04;100906.43;103714;1306;22477;-76
2022/10/11 05:35:14;;;;;;;12.60;5.10;;;;;;;10.40;91.15;100915.08;103637;1305;26677;-76
2022/10/11 05:37:46;;;;;;;14.60;4.20;;;;;;;10.38;91.11;100922.27;103670;1295;22494;-76
2022/10/11 05:40:17;;;;;;;15.30;4.80;;;;;;;10.35;91.31;100920.06;103585;1288;24416;-76
2022/10/11 05:42:48;;;;;;;14.60;3.50;;;;;;;10.33;91.34;100928.06;103622;1278;23878;-76
2022/10/11 05:45:20;;;;;;;16.40;4.70;;;;;;;10.32;91.33;100929.00;103699;1292;22480;-76
2022/10/11 05:47:51;;;;;;;13.30;3.30;;;;;;;10.30;91.50;100934.79;103729;1287;23378;-75
2022/10/11 05:50:25;;;;;;;11.20;3.50;;;;;;;10.30;91.48;100936.56;103646;1281;22590;-76
2022/10/11 05:52:58;;;;;;;13.50;4.60;;;;;;;10.31;91.83;100942.81;103676;1280;22494;-75
2022/10/11 05:55:29;;;;;;;18.00;4.40;;;;;;;10.34;91.89;100950.35;103850;1284;22521;-75
2022/10/11 05:58:00;;;;;;;12.10;3.80;;;;;;;10.37;91.94;100956.75;103604;1288;23216;-76
2022/10/11 06:00:31;;;;;;;17.00;4.40;;;;;;;10.41;92.05;100959.95;103611;1281;22457;-76
2022/10/11 06:03:03;;;;;;;19.90;3.70;;;;;;;10.45;92.30;100967.29;103584;1282;22470;-76
2022/10/11 06:05:36;;;;;;;17.40;4.30;;;;;;;10.48;92.30;100972.80;103692;1296;24327;-76
2022/10/11 06:08:09;;;;;;;14.70;4.80;;;;;;;10.52;92.31;100973.30;103599;1304;22476;-77
2022/10/11 06:10:40;;;;;;;16.60;4.90;;;;;;;10.55;92.30;100984.73;104020;1305;22583;-78
2022/10/11 06:13:12;;;;;;;12.80;3.70;;;;;;;10.57;92.22;100986.37;103630;1282;24249;-77
2022/10/11 06:15:43;;;;;;;12.70;3.70;;;;;;;10.60;92.50;100987.27;103562;1298;22575;-77
2022/10/11 06:18:15;;;;;;;15.00;4.20;;;;;;;10.62;92.38;100992.52;103568;1304;23933;-77
2022/10/11 06:20:46;;;;;;;17.80;4.40;;;;;;;10.64;92.32;101002.31;103615;1285;22508;-78
2022/10/11 06:23:18;;;;;;;15.50;4.30;;;;;;;10.67;92.39;101003.41;103572;1299;24412;-78
2022/10/11 06:25:59;;;;;;;15.50;4.50;;;;;;;10.69;92.40;101004.90;103594;1282;22479;-77
2022/10/11 06:28:31;;;;;;;13.60;3.40;;;;;;;10.71;92.38;101010.90;103727;1304;22458;-77
2022/10/11 06:31:03;;;;;;;14.60;4.50;;;;;;;10.72;92.49;101016.83;103681;1297;22585;-78
2022/10/11 06:33:37;;;;;;;13.30;4.00;;;;;;;10.74;92.47;101018.76;103573;1278;23327;-77
2022/10/11 06:36:12;;;;;;;13.80;4.00;;;;;;;10.75;92.28;101024.30;103591;1291;25649;-78
2022/10/11 06:38:43;;;;;;;15.70;3.20;;;;;;;10.77;92.20;101031.95;103701;1299;22551;-78
2022/10/11 06:41:18;;;;;;;16.20;4.40;;;;;;;10.79;92.34;101039.46;103554;1282;22462;-78
2022/10/11 06:43:50;;;;;;;11.90;3.80;;;;;;;10.80;92.23;101042.70;103644;1275;22492;-77
2022/10/11 06:46:23;;;;;;;12.80;3.60;;;;;;;10.80;92.20;101050.33;103633;1303;22597;-78
2022/10/11 06:48:55;;;;;;;12.40;3.20;;;;;;;10.80;92.07;101053.69;103601;1282;25537;-78
2022/10/11 06:51:29;;;;;;;11.30;2.80;;;;;;;10.82;92.39;101053.78;103352;1306;250998;-78
2022/10/11 06:54:02;;;;;;;9.40;2.60;;;;;;;10.82;92.22;101056.31;103590;1298;22515;-78
2022/10/11 06:56:33;;;;;;;15.30;3.40;;;;;;;10.81;92.15;101058.11;103592;1297;24432;-78
2022/10/11 06:59:04;;;;;;;13.90;2.70;;;;;;;10.80;92.01;101062.77;103475;1291;22533;-77
2022/10/11 07:01:36;;;;;;;13.20;2.90;;;;;;;10.81;92.48;101070.34;103557;1304;22475;-78
2022/10/11 07:04:07;;;;;;;13.20;3.20;;;;;;;10.81;92.32;101072.55;103671;1297;25367;-77
2022/10/11 07:06:40;;;;;;;13.30;2.90;;;;;;;10.83;92.36;101077.27;103724;1290;24412;-78
2022/10/11 07:09:11;;;;;;;10.50;2.50;;;;;;;10.84;92.45;101081.06;103638;1281;22522;-77
2022/10/11 07:11:42;;;;;;;15.20;3.00;;;;;;;10.84;92.46;101089.44;103609;1304;24035;-78
2022/10/11 07:14:14;;;;;;;10.00;2.30;;;;;;;10.86;92.28;101087.98;103692;1304;23372;-77
2022/10/11 07:16:45;;;;;;;18.60;4.10;;;;;;;10.86;92.12;101090.10;103646;1282;22618;-77
2022/10/11 07:19:16;;;;;;;14.50;2.40;;;;;;;10.83;91.83;101089.88;103568;1298;25242;-77
2022/10/11 07:21:47;;;;;;;15.10;2.90;;;;;;;10.80;91.73;101093.59;103601;1289;22427;-77
2022/10/11 07:24:19;;;;;;;17.50;2.60;;;;;;;10.80;91.97;101092.88;103595;1306;23047;-78
2022/10/11 07:26:50;;;;;;;12.50;3.00;;;;;;;10.84;91.93;101099.73;103592;1297;25323;-77
2022/10/11 07:29:21;;;;;;;11.80;2.20;;;;;;;10.87;91.98;101104.80;103592;1305;22477;-77
2022/10/11 07:31:53;;;;;;;16.00;3.30;;;;;;;10.93;92.04;101108.32;103598;1281;22577;-78
2022/10/11 07:34:24;;;;;;;7.80;2.10;;;;;;;10.98;91.69;101113.05;103631;1274;24318;-78
2022/10/11 07:36:55;;;;;;;10.40;2.10;;;;;;;11.03;91.19;101120.20;103611;1304;25202;-77
2022/10/11 07:39:27;;;;;;;15.30;1.90;;;;;;;11.10;90.93;101120.13;103573;1305;22586;-78
2022/10/11 07:41:58;;;;;;;10.40;2.10;;;;;;;11.19;90.00;101123.92;103626;1284;24233;-77
2022/10/11 07:44:29;;;;;;;10.20;2.00;;;;;;;11.25;90.25;101124.77;103633;1298;22534;-77
2022/10/11 07:47:00;;;;;;;8.40;1.60;;;;;;;11.33;89.73;101133.95;103575;1292;22494;-77
2022/10/11 07:49:32;;;;;;;8.40;1.40;;;;;;;11.35;88.45;101134.66;103578;1306;22564;-77
2022/10/11 07:52:03;;;;;;;12.20;1.60;;;;;;;11.34;87.61;101134.64;103664;1291;22497;-78
2022/10/11 07:54:34;;;;;;;10.60;1.80;;;;;;;11.36;87.91;101135.73;103634;1305;24265;-78
2022/10/11 07:57:07;;;;;;;7.50;1.20;;;;;;;11.46;88.35;101139.40;103681;1299;26371;-78
2022/10/11 07:59:38;;;;;;;12.50;1.60;;;;;;;11.52;87.18;101145.33;103637;1297;24311;-78
2022/10/11 08:02:11;;;;;;;11.50;2.00;;;;;;;11.57;87.13;101142.03;103605;1305;22467;-78
2022/10/11 08:04:43;;;;;;;12.20;1.60;;;;;;;11.62;86.63;101144.41;103583;1305;23205;-78
2022/10/11 08:07:14;;;;;;;10.70;1.40;;;;;;;11.62;86.11;101145.93;103610;1304;22534;-78
2022/10/11 08:09:45;;;;;;;14.10;1.40;;;;;;;11.59;85.85;101148.29;103556;1274;25291;-78
2022/10/11 08:12:16;;;;;;;10.10;1.40;;;;;;;11.54;85.33;101147.99;103616;1291;22725;-78
2022/10/11 08:14:47;;;;;;;8.90;1.20;;;;;;;11.49;85.26;101151.40;103631;1284;22485;-77
2022/10/11 08:17:19;;;;;;;9.10;0.90;;;;;;;11.47;85.06;101155.20;103630;1282;22516;-78
2022/10/11 08:19:51;;;;;;;10.20;1.00;;;;;;;11.49;84.58;101154.95;103516;1282;24266;-77
2022/10/11 08:22:22;;;;;;;8.00;1.10;;;;;;;11.57;84.98;101152.52;103629;1305;24319;-78
2022/10/11 08:24:53;;;;;;;11.90;1.00;;;;;;;11.63;83.72;101154.56;103609;1306;24234;-78
2022/10/11 08:27:25;;;;;;;10.80;1.10;;;;;;;11.66;82.62;101158.08;103567;1306;22610;-77
2022/10/11 08:29:58;;;;;;;10.60;1.50;;;;;;;11.68;83.05;101157.03;103541;1306;22495;-77
2022/10/11 08:32:30;;;;;;;10.30;0.90;;;;;;;11.68;82.82;101158.92;103514;1298;22532;-78
2022/10/11 08:35:02;;;;;;;10.00;1.10;;;;;;;11.69;82.99;101159.84;103575;1306;22537;-77
2022/10/11 08:37:33;;;;;;;6.10;1.00;;;;;;;11.73;83.12;101162.25;103645;1306;24921;-77
2022/10/11 08:40:06;;;;;;;9.60;1.20;;;;;;;11.81;83.66;101163.47;103446;1299;23407;-78
2022/10/11 08:42:46;;;;;;;11.00;1.00;;;;;;;11.92;83.36;101170.98;103753;1299;25336;-78
2022/10/11 08:45:29;;;;;;;12.90;0.90;;;;;;;12.00;82.83;101171.77;103628;1283;22666;-78
2022/10/11 08:48:11;;;;;;;7.50;0.60;;;;;;;12.03;81.30;101172.52;103600;1288;22592;-78
2022/10/11 08:50:44;;;;;;;12.30;0.90;;;;;;;12.03;80.45;101170.44;103761;1298;22598;-78
2022/10/11 08:53:23;;;;;;;8.40;0.80;;;;;;;12.03;80.11;101176.13;103610;1281;23504;-78
2022/10/11 08:55:56;;;;;;;5.10;0.80;;;;;;;12.02;80.27;101175.55;103667;1306;25528;-78
2022/10/11 08:58:37;;;;;;;11.20;0.80;;;;;;;12.03;80.81;101177.90;103654;1288;24235;-78
2022/10/11 09:01:15;;;;;;;5.10;0.50;;;;;;;12.09;80.77;101182.82;103534;1282;22486;-78
2022/10/11 09:03:49;;;;;;;6.30;1.00;;;;;;;12.17;79.82;101182.06;103695;1305;22492;-78
2022/10/11 09:06:42;;;;;;;10.20;0.50;;;;;;;12.26;78.58;101189.97;103648;1298;22736;-78
2022/10/11 09:09:27;;;;;;;8.10;0.70;;;;;;;12.36;77.86;101186.25;103541;1304;24481;-78
2022/10/11 09:12:11;;;;;;;10.70;1.30;;;;;;;12.35;77.45;101186.85;103623;1285;24294;-77
2022/10/11 09:15:07;;;;;;;7.50;0.90;;;;;;;12.40;78.30;101193.02;103611;1305;22865;-78
2022/10/11 09:17:52;;;;;;;5.80;0.60;;;;;;;12.45;77.87;101189.28;103705;1306;22469;-78
2022/10/11 09:20:38;;;;;;;8.30;0.80;;;;;;;12.52;77.80;101189.42;103669;1298;25636;-78
2022/10/11 09:23:21;;;;;;;11.10;0.70;;;;;;;12.61;76.98;101193.73;103596;1304;24384;-78
2022/10/11 09:25:59;;;;;;;11.20;0.70;;;;;;;12.67;76.58;101192.52;103613;1298;22867;-78
2022/10/11 09:28:44;;;;;;;8.40;0.60;;;;;;;12.68;76.16;101185.34;103672;1306;25274;-78
2022/10/11 09:31:16;;;;;;;7.30;0.80;;;;;;;12.72;75.16;101191.69;103599;1297;24392;-77
2022/10/11 09:33:49;;;;;;;9.60;0.70;;;;;;;12.75;75.11;101191.95;103932;1298;22474;-78
2022/10/11 09:36:27;;;;;;;13.30;0.70;;;;;;;12.76;74.29;101195.19;103626;1288;22507;-78
2022/10/11 09:39:07;;;;;;;6.60;0.60;;;;;;;12.73;73.97;101195.73;103741;1298;22585;-78
2022/10/11 09:41:49;;;;;;;2.20;0.60;;;;;;;12.74;74.47;101196.35;103590;1282;22482;-79
2022/10/11 09:44:26;;;;;;;7.10;0.80;;;;;;;12.75;74.05;101193.16;103602;1305;22618;-78
2022/10/11 09:46:59;;;;;;;9.60;1.20;;;;;;;12.78;74.34;101189.89;103625;1305;24746;-78
2022/10/11 09:49:36;;;;;;;10.80;0.90;;;;;;;12.82;73.93;101186.52;103570;1294;23249;-78
2022/10/11 09:52:14;;;;;;;6.30;0.70;;;;;;;12.88;74.06;101182.70;103726;1281;22613;-78
2022/10/11 09:54:48;;;;;;;4.70;0.60;;;;;;;12.94;73.04;101181.85;103743;1305;22969;-78
2022/10/11 09:57:25;;;;;;;8.60;0.80;;;;;;;13.00;71.68;101188.66;103721;1292;22566;-78
2022/10/11 10:00:04;;;;;;;10.70;0.60;;;;;;;13.03;71.51;101191.73;103656;1304;25459;-78
2022/10/11 10:02:43;;;;;;;8.80;0.50;;;;;;;13.06;71.31;101188.42;103605;1299;25516;-78
2022/10/11 10:05:21;;;;;;;8.30;0.40;;;;;;;13.07;71.51;101186.15;103615;1292;22460;-78
2022/10/11 10:08:24;;;;;;;7.70;0.90;;;;;;;13.03;70.55;101193.02;103555;1306;26445;-77
2022/10/11 10:11:03;;;;;;;11.20;1.40;;;;;;;13.06;71.62;101194.99;103580;1300;22487;-78
2022/10/11 10:13:45;;;;;;;19.70;5.90;;;;;;;13.11;71.16;101192.27;103660;1305;22487;-77
2022/10/11 10:16:29;;;;;;;14.00;1.70;;;;;;;13.18;71.53;101190.23;103607;1299;25523;-77
2022/10/11 10:19:02;;;;;;;7.60;0.80;;;;;;;13.24;71.14;101193.73;103682;1298;22677;-77
2022/10/11 10:21:36;;;;;;;7.10;0.60;;;;;;;13.32;68.44;101193.01;103579;1303;24125;-77
2022/10/11 10:24:17;;;;;;;5.10;0.30;;;;;;;13.37;68.66;101199.75;103578;1282;23077;-77
2022/10/11 10:27:07;;;;;;;7.30;0.60;;;;;;;13.28;68.26;101204.85;103626;1304;22470;-77
2022/10/11 10:29:39;;;;;;;6.60;0.60;;;;;;;13.17;69.18;101198.81;103689;1299;22975;-77
2022/10/11 10:32:14;;;;;;;5.40;0.60;;;;;;;13.10;69.18;101197.85;103608;1305;25287;-78
2022/10/11 10:35:00;;;;;;;3.50;0.60;;;;;;;13.05;69.34;101199.20;103573;1305;24434;-77
2022/10/11 10:37:36;;;;;;;6.70;0.80;;;;;;;13.04;69.58;101194.77;103657;1295;22498;-77
2022/10/11 10:40:14;;;;;;;9.90;1.10;;;;;;;13.06;69.46;101194.31;103593;1304;22471;-77
2022/10/11 10:42:45;;;;;;;7.90;0.70;;;;;;;13.08;67.88;101197.23;103552;1292;22474;-78
2022/10/11 10:45:20;;;;;;;5.20;0.40;;;;;;;13.10;67.34;101203.23;103635;1291;22489;-78
2022/10/11 10:48:16;;;;;;;2.50;0.40;;;;;;;13.08;66.13;101199.13;103647;1283;22512;-77
2022/10/11 10:50:54;;;;;;;6.90;0.80;;;;;;;13.10;66.40;101196.02;103598;1275;22525;-78
2022/10/11 10:53:32;;;;;;;9.70;0.60;;;;;;;13.12;66.50;101201.05;103600;1303;26375;-78
2022/10/11 10:56:10;;;;;;;6.40;0.50;;;;;;;13.17;66.95;101195.17;103634;1288;22489;-77
2022/10/11 10:59:03;;;;;;;7.20;0.50;;;;;;;13.26;66.11;101198.73;103538;1291;25446;-77
2022/10/11 11:01:44;;;;;;;7.70;0.70;;;;;;;13.34;66.12;101195.06;103598;1306;25279;-78
2022/10/11 11:04:29;;;;;;;9.00;0.90;;;;;;;13.41;65.74;101188.88;103652;1306;22469;-77
2022/10/11 11:07:13;;;;;;;6.80;0.60;;;;;;;13.47;65.89;101188.00;103613;1306;24219;-78
2022/10/11 11:09:51;;;;;;;8.50;0.50;;;;;;;13.54;65.06;101190.70;103577;1284;22464;-78
2022/10/11 11:12:36;;;;;;;6.20;0.50;;;;;;;13.61;65.37;101193.51;103580;1303;22546;-77
2022/10/11 11:15:14;;;;;;;6.10;0.60;;;;;;;13.65;64.87;101195.23;103674;1298;22582;-78
2022/10/11 11:17:57;;;;;;;4.90;0.50;;;;;;;13.71;64.37;101195.31;103664;1278;22491;-78
2022/10/11 11:20:48;;;;;;;5.70;0.70;;;;;;;13.77;64.26;101201.27;103486;1288;22604;-78
2022/10/11 11:23:30;;;;;;;7.60;0.60;;;;;;;13.80;63.52;101198.67;103609;1297;23067;-78
2022/10/11 11:26:10;;;;;;;6.60;0.40;;;;;;;13.83;60.68;101200.56;103643;1305;22525;-78
2022/10/11 11:28:57;;;;;;;6.10;0.40;;;;;;;13.80;61.04;101204.63;103583;1299;22494;-78
2022/10/11 11:31:50;;;;;;;8.70;0.60;;;;;;;13.66;59.98;101207.88;103581;1295;22521;-78
2022/10/11 11:34:26;;;;;;;5.10;0.50;;;;;;;13.55;61.36;101202.14;103617;1298;26756;-78
2022/10/11 11:37:00;;;;;;;7.80;0.60;;;;;;;13.50;61.82;101198.98;103598;1305;22588;-78
2022/10/11 11:39:35;;;;;;;8.70;0.60;;;;;;;13.55;61.77;101200.91;103438;1289;22613;-78
2022/10/11 11:42:15;;;;;;;5.40;0.50;;;;;;;13.59;60.89;101199.43;103518;1281;22543;-78
2022/10/11 11:44:47;;;;;;;;;;;;;;;13.59;60.96;101199.84;103601;1304;22505;-78
2022/10/11 11:47:20;;;;;;;;;;;;;;;13.60;60.45;101201.24;103523;1283;25020;-77